Etusivu
METAR-TAF:

METAR-TAF

Lentoasemat :

Bamako, Mali

Senoun kansainvälinen lentoasema

Leveyspiiri: 12-32N, Pituuspiiri: 007-57W, korkeus merenpinnasta: 380 m

Tämänhetkinen sää

Tämä raportti tehtiin 41 minuuttia sitten, kello 23.00 UTC
Tuuli 8 kn pohjoisesta
Lämpötila 25°C
Kosteus 19%
Ilmanpaine 1015 hPa
Näkyvyys: 6000 m

METAR: GABS 172300Z 36008KT 6000 NSC 25/00 Q1015 NOSIG

Aika: 23:41 (23:41 UTC)

Sääennuste

Tämä raportti tehtiin 31 minuuttia sitten, kello 23.10 UTC
Ennuste voimassa 18. päivästä klo 00 UTC - 19. päivään klo 06 UTC
Tuuli 8 kn pohjoisesta
Näkyvyys: 6000 m
Todennäköisyys 40% :
Ajoittain
18. päivästä klo 07 UTC - 18. päivään klo 14 UTC
Näkyvyys: 4000 m
laajalle levinnyttä pölyä

TAF: GABS 172310Z 1800/1906 36008KT 6000 NSC PROB40 TEMPO 1807/1814 4000 DU

Säähavainnot ja -ennusteet yli 4000 lentoasemalta (METAR- ja TAF-raportit).

Käytössä olevat sääasemat on merkitty karttaan keltaisilla ja punaisilla pisteillä.

Aseta hiiri pisteen päälle nähdäksesi sääaseman nimen.

Klikkaa sitten nähdäksesi säähavainnot ja -ennusteet.

Kartan vaihtaminen: klikkaa mustalla rastilla varustettuja vihreitä pisteitä, niin voit zoomata sisään; viivalla varustettua vihreää pistettä, niin voit zoomata ulos tai vihreitä nuolia, niin pääset viereisille kartoille.


METAR-TAF: